sensor_id;sensor_type;location;lat;lon;timestamp;P1;durP1;ratioP1;P2;durP2;ratioP2
12900;SDS011;6518;50.930;5.344;2023-10-13T00:01:47;18.48;;;12.63;;
12900;SDS011;6518;50.930;5.344;2023-10-13T00:04:17;16.23;;;12.93;;
12900;SDS011;6518;50.930;5.344;2023-10-13T00:06:47;19.98;;;12.85;;
12900;SDS011;6518;50.930;5.344;2023-10-13T00:09:15;19.55;;;12.43;;
12900;SDS011;6518;50.930;5.344;2023-10-13T00:11:44;19.80;;;13.50;;
12900;SDS011;6518;50.930;5.344;2023-10-13T00:14:12;21.45;;;14.10;;
12900;SDS011;6518;50.930;5.344;2023-10-13T00:16:42;17.08;;;13.25;;
12900;SDS011;6518;50.930;5.344;2023-10-13T00:19:27;16.77;;;13.10;;
12900;SDS011;6518;50.930;5.344;2023-10-13T00:22:02;21.52;;;13.35;;
12900;SDS011;6518;50.930;5.344;2023-10-13T00:24:35;19.58;;;14.18;;
12900;SDS011;6518;50.930;5.344;2023-10-13T00:27:09;17.77;;;13.15;;
12900;SDS011;6518;50.930;5.344;2023-10-13T00:29:53;16.88;;;13.25;;
12900;SDS011;6518;50.930;5.344;2023-10-13T00:32:40;20.60;;;13.82;;
12900;SDS011;6518;50.930;5.344;2023-10-13T00:35:11;17.35;;;13.02;;
12900;SDS011;6518;50.930;5.344;2023-10-13T00:37:50;20.45;;;13.32;;
12900;SDS011;6518;50.930;5.344;2023-10-13T00:40:18;21.38;;;13.43;;
12900;SDS011;6518;50.930;5.344;2023-10-13T00:43:06;18.02;;;13.18;;
12900;SDS011;6518;50.930;5.344;2023-10-13T00:45:49;16.23;;;13.65;;
12900;SDS011;6518;50.930;5.344;2023-10-13T00:48:22;18.92;;;13.80;;
12900;SDS011;6518;50.930;5.344;2023-10-13T00:50:56;18.33;;;13.43;;
12900;SDS011;6518;50.930;5.344;2023-10-13T00:53:28;23.20;;;13.70;;
12900;SDS011;6518;50.930;5.344;2023-10-13T00:55:54;21.90;;;13.38;;
12900;SDS011;6518;50.930;5.344;2023-10-13T00:58:22;17.85;;;13.05;;
12900;SDS011;6518;50.930;5.344;2023-10-13T01:00:50;20.88;;;14.18;;
12900;SDS011;6518;50.930;5.344;2023-10-13T01:03:25;22.98;;;13.90;;
12900;SDS011;6518;50.930;5.344;2023-10-13T01:05:52;22.27;;;14.15;;
12900;SDS011;6518;50.930;5.344;2023-10-13T01:08:34;19.90;;;13.90;;
12900;SDS011;6518;50.930;5.344;2023-10-13T01:11:03;23.20;;;14.77;;
12900;SDS011;6518;50.930;5.344;2023-10-13T01:13:32;20.45;;;13.80;;
12900;SDS011;6518;50.930;5.344;2023-10-13T01:16:01;22.25;;;14.52;;
12900;SDS011;6518;50.930;5.344;2023-10-13T01:18:32;20.98;;;14.98;;
12900;SDS011;6518;50.930;5.344;2023-10-13T01:21:14;20.45;;;14.23;;
12900;SDS011;6518;50.930;5.344;2023-10-13T01:23:43;17.85;;;13.30;;
12900;SDS011;6518;50.930;5.344;2023-10-13T01:26:12;16.38;;;13.05;;
12900;SDS011;6518;50.930;5.344;2023-10-13T01:28:41;17.65;;;14.30;;
12900;SDS011;6518;50.930;5.344;2023-10-13T01:31:12;19.08;;;13.70;;
12900;SDS011;6518;50.930;5.344;2023-10-13T01:33:42;21.77;;;14.45;;
12900;SDS011;6518;50.930;5.344;2023-10-13T01:36:10;17.65;;;13.93;;
12900;SDS011;6518;50.930;5.344;2023-10-13T01:38:37;20.33;;;13.40;;
12900;SDS011;6518;50.930;5.344;2023-10-13T01:41:09;18.38;;;13.13;;
12900;SDS011;6518;50.930;5.344;2023-10-13T01:43:35;19.50;;;13.85;;
12900;SDS011;6518;50.930;5.344;2023-10-13T01:46:02;20.52;;;13.93;;
12900;SDS011;6518;50.930;5.344;2023-10-13T01:48:28;19.35;;;13.77;;
12900;SDS011;6518;50.930;5.344;2023-10-13T01:50:58;17.05;;;13.50;;
12900;SDS011;6518;50.930;5.344;2023-10-13T01:53:25;19.08;;;13.23;;
12900;SDS011;6518;50.930;5.344;2023-10-13T01:55:54;20.73;;;13.55;;
12900;SDS011;6518;50.930;5.344;2023-10-13T01:58:23;18.15;;;13.38;;
12900;SDS011;6518;50.930;5.344;2023-10-13T02:00:54;22.95;;;13.95;;
12900;SDS011;6518;50.930;5.344;2023-10-13T02:03:21;17.85;;;13.02;;
12900;SDS011;6518;50.930;5.344;2023-10-13T02:05:48;22.23;;;13.82;;
12900;SDS011;6518;50.930;5.344;2023-10-13T02:08:18;15.95;;;13.13;;
12900;SDS011;6518;50.930;5.344;2023-10-13T02:10:49;22.23;;;13.32;;
12900;SDS011;6518;50.930;5.344;2023-10-13T02:13:16;18.80;;;13.20;;
12900;SDS011;6518;50.930;5.344;2023-10-13T02:15:46;19.23;;;13.82;;
12900;SDS011;6518;50.930;5.344;2023-10-13T02:18:13;19.48;;;13.93;;
12900;SDS011;6518;50.930;5.344;2023-10-13T02:20:46;23.63;;;14.48;;
12900;SDS011;6518;50.930;5.344;2023-10-13T02:23:19;21.00;;;14.32;;
12900;SDS011;6518;50.930;5.344;2023-10-13T02:25:46;19.40;;;13.38;;
12900;SDS011;6518;50.930;5.344;2023-10-13T02:28:12;17.02;;;12.68;;
12900;SDS011;6518;50.930;5.344;2023-10-13T02:30:40;20.42;;;13.05;;
12900;SDS011;6518;50.930;5.344;2023-10-13T02:33:10;19.20;;;13.73;;
12900;SDS011;6518;50.930;5.344;2023-10-13T02:35:39;19.20;;;13.73;;
12900;SDS011;6518;50.930;5.344;2023-10-13T02:38:15;19.73;;;13.10;;
12900;SDS011;6518;50.930;5.344;2023-10-13T02:40:53;21.25;;;13.90;;
12900;SDS011;6518;50.930;5.344;2023-10-13T02:43:19;18.50;;;13.38;;
12900;SDS011;6518;50.930;5.344;2023-10-13T02:45:56;20.77;;;12.73;;
12900;SDS011;6518;50.930;5.344;2023-10-13T02:48:25;16.73;;;12.40;;
12900;SDS011;6518;50.930;5.344;2023-10-13T02:50:56;18.92;;;12.43;;
12900;SDS011;6518;50.930;5.344;2023-10-13T02:53:27;19.42;;;12.50;;
12900;SDS011;6518;50.930;5.344;2023-10-13T02:55:55;17.77;;;12.95;;
12900;SDS011;6518;50.930;5.344;2023-10-13T02:58:30;18.23;;;13.30;;
12900;SDS011;6518;50.930;5.344;2023-10-13T03:01:07;20.45;;;12.07;;
12900;SDS011;6518;50.930;5.344;2023-10-13T03:03:44;16.90;;;11.73;;
12900;SDS011;6518;50.930;5.344;2023-10-13T03:06:15;14.45;;;11.40;;
12900;SDS011;6518;50.930;5.344;2023-10-13T03:08:42;16.95;;;11.38;;
12900;SDS011;6518;50.930;5.344;2023-10-13T03:11:09;14.68;;;10.48;;
12900;SDS011;6518;50.930;5.344;2023-10-13T03:13:36;17.95;;;10.52;;
12900;SDS011;6518;50.930;5.344;2023-10-13T03:16:12;16.98;;;10.60;;
12900;SDS011;6518;50.930;5.344;2023-10-13T03:18:41;16.02;;;10.32;;
12900;SDS011;6518;50.930;5.344;2023-10-13T03:21:19;16.58;;;10.90;;
12900;SDS011;6518;50.930;5.344;2023-10-13T03:23:55;16.85;;;10.98;;
12900;SDS011;6518;50.930;5.344;2023-10-13T03:26:29;17.05;;;11.00;;
12900;SDS011;6518;50.930;5.344;2023-10-13T03:29:00;16.08;;;9.70;;
12900;SDS011;6518;50.930;5.344;2023-10-13T03:31:29;18.27;;;10.55;;
12900;SDS011;6518;50.930;5.344;2023-10-13T03:34:04;18.33;;;10.18;;
12900;SDS011;6518;50.930;5.344;2023-10-13T03:36:35;18.73;;;10.40;;
12900;SDS011;6518;50.930;5.344;2023-10-13T03:39:16;16.15;;;10.25;;
12900;SDS011;6518;50.930;5.344;2023-10-13T03:41:43;12.05;;;9.57;;
12900;SDS011;6518;50.930;5.344;2023-10-13T03:44:10;16.45;;;9.48;;
12900;SDS011;6518;50.930;5.344;2023-10-13T03:46:43;14.30;;;9.50;;
12900;SDS011;6518;50.930;5.344;2023-10-13T03:49:15;14.73;;;9.75;;
12900;SDS011;6518;50.930;5.344;2023-10-13T03:51:47;15.95;;;10.02;;
12900;SDS011;6518;50.930;5.344;2023-10-13T03:54:15;16.60;;;10.82;;
12900;SDS011;6518;50.930;5.344;2023-10-13T03:56:43;20.90;;;9.63;;
12900;SDS011;6518;50.930;5.344;2023-10-13T03:59:17;17.63;;;9.27;;
12900;SDS011;6518;50.930;5.344;2023-10-13T04:01:45;15.88;;;10.10;;
12900;SDS011;6518;50.930;5.344;2023-10-13T04:04:20;13.23;;;8.57;;
12900;SDS011;6518;50.930;5.344;2023-10-13T04:07:00;11.98;;;8.77;;
12900;SDS011;6518;50.930;5.344;2023-10-13T04:09:41;14.65;;;9.60;;
12900;SDS011;6518;50.930;5.344;2023-10-13T04:12:25;19.23;;;8.45;;
12900;SDS011;6518;50.930;5.344;2023-10-13T04:15:10;16.73;;;9.15;;
12900;SDS011;6518;50.930;5.344;2023-10-13T04:17:49;17.40;;;8.65;;
12900;SDS011;6518;50.930;5.344;2023-10-13T04:20:17;15.63;;;9.10;;
12900;SDS011;6518;50.930;5.344;2023-10-13T04:22:58;13.77;;;8.23;;
12900;SDS011;6518;50.930;5.344;2023-10-13T04:25:43;14.65;;;8.60;;
12900;SDS011;6518;50.930;5.344;2023-10-13T04:28:33;14.43;;;8.88;;
12900;SDS011;6518;50.930;5.344;2023-10-13T04:31:01;16.80;;;8.27;;
12900;SDS011;6518;50.930;5.344;2023-10-13T04:33:37;15.65;;;8.55;;
12900;SDS011;6518;50.930;5.344;2023-10-13T04:36:18;13.68;;;8.43;;
12900;SDS011;6518;50.930;5.344;2023-10-13T04:39:01;15.02;;;7.80;;
12900;SDS011;6518;50.930;5.344;2023-10-13T04:41:45;12.95;;;8.35;;
12900;SDS011;6518;50.930;5.344;2023-10-13T04:44:23;18.60;;;8.23;;
12900;SDS011;6518;50.930;5.344;2023-10-13T04:47:17;16.23;;;8.27;;
12900;SDS011;6518;50.930;5.344;2023-10-13T04:49:46;15.63;;;7.93;;
12900;SDS011;6518;50.930;5.344;2023-10-13T04:52:16;10.85;;;7.15;;
12900;SDS011;6518;50.930;5.344;2023-10-13T04:54:58;14.75;;;7.35;;
12900;SDS011;6518;50.930;5.344;2023-10-13T04:57:35;14.50;;;7.07;;
12900;SDS011;6518;50.930;5.344;2023-10-13T05:00:12;17.00;;;7.00;;
12900;SDS011;6518;50.930;5.344;2023-10-13T05:02:57;11.65;;;7.03;;
12900;SDS011;6518;50.930;5.344;2023-10-13T05:06:05;16.00;;;6.97;;
12900;SDS011;6518;50.930;5.344;2023-10-13T05:09:00;15.25;;;7.28;;
12900;SDS011;6518;50.930;5.344;2023-10-13T05:11:44;11.48;;;6.88;;
12900;SDS011;6518;50.930;5.344;2023-10-13T05:14:29;19.05;;;6.60;;
12900;SDS011;6518;50.930;5.344;2023-10-13T05:17:28;13.60;;;6.93;;
12900;SDS011;6518;50.930;5.344;2023-10-13T05:20:09;11.65;;;7.00;;
12900;SDS011;6518;50.930;5.344;2023-10-13T05:22:54;15.75;;;7.38;;
12900;SDS011;6518;50.930;5.344;2023-10-13T05:25:39;17.70;;;7.22;;
12900;SDS011;6518;50.930;5.344;2023-10-13T05:28:23;11.98;;;7.35;;
12900;SDS011;6518;50.930;5.344;2023-10-13T05:31:08;13.80;;;7.53;;
12900;SDS011;6518;50.930;5.344;2023-10-13T05:33:53;14.52;;;7.72;;
12900;SDS011;6518;50.930;5.344;2023-10-13T05:36:37;14.38;;;7.20;;
12900;SDS011;6518;50.930;5.344;2023-10-13T05:39:22;16.02;;;7.78;;
12900;SDS011;6518;50.930;5.344;2023-10-13T05:42:09;17.85;;;7.78;;
12900;SDS011;6518;50.930;5.344;2023-10-13T05:44:53;12.88;;;7.72;;
12900;SDS011;6518;50.930;5.344;2023-10-13T05:47:42;26.45;;;6.93;;
12900;SDS011;6518;50.930;5.344;2023-10-13T05:50:26;12.52;;;6.60;;
12900;SDS011;6518;50.930;5.344;2023-10-13T05:53:15;20.10;;;7.53;;
12900;SDS011;6518;50.930;5.344;2023-10-13T05:56:03;12.88;;;6.43;;
12900;SDS011;6518;50.930;5.344;2023-10-13T05:58:49;19.15;;;7.90;;
12900;SDS011;6518;50.930;5.344;2023-10-13T06:01:33;14.85;;;7.32;;
12900;SDS011;6518;50.930;5.344;2023-10-13T06:04:18;21.25;;;7.15;;
12900;SDS011;6518;50.930;5.344;2023-10-13T06:07:16;30.05;;;7.43;;
12900;SDS011;6518;50.930;5.344;2023-10-13T06:10:01;15.98;;;6.43;;
12900;SDS011;6518;50.930;5.344;2023-10-13T06:12:45;16.08;;;7.07;;
12900;SDS011;6518;50.930;5.344;2023-10-13T06:15:36;18.20;;;7.13;;
12900;SDS011;6518;50.930;5.344;2023-10-13T06:18:20;12.85;;;7.10;;
12900;SDS011;6518;50.930;5.344;2023-10-13T06:21:01;12.32;;;6.13;;
12900;SDS011;6518;50.930;5.344;2023-10-13T06:23:46;15.80;;;6.78;;
12900;SDS011;6518;50.930;5.344;2023-10-13T06:26:30;18.48;;;7.28;;
12900;SDS011;6518;50.930;5.344;2023-10-13T06:29:15;16.90;;;6.65;;
12900;SDS011;6518;50.930;5.344;2023-10-13T06:31:46;21.00;;;7.10;;
12900;SDS011;6518;50.930;5.344;2023-10-13T06:34:14;13.95;;;6.55;;
12900;SDS011;6518;50.930;5.344;2023-10-13T06:36:41;15.57;;;6.60;;
12900;SDS011;6518;50.930;5.344;2023-10-13T06:39:11;18.85;;;6.95;;
12900;SDS011;6518;50.930;5.344;2023-10-13T06:42:00;15.73;;;6.40;;
12900;SDS011;6518;50.930;5.344;2023-10-13T06:44:28;15.27;;;6.72;;
12900;SDS011;6518;50.930;5.344;2023-10-13T06:46:58;18.05;;;6.45;;
12900;SDS011;6518;50.930;5.344;2023-10-13T06:49:29;13.70;;;6.53;;
12900;SDS011;6518;50.930;5.344;2023-10-13T06:51:58;16.48;;;7.45;;
12900;SDS011;6518;50.930;5.344;2023-10-13T06:54:26;18.27;;;7.38;;
12900;SDS011;6518;50.930;5.344;2023-10-13T06:56:53;12.55;;;5.97;;
12900;SDS011;6518;50.930;5.344;2023-10-13T06:59:20;16.42;;;6.30;;
12900;SDS011;6518;50.930;5.344;2023-10-13T07:01:51;16.83;;;6.03;;
12900;SDS011;6518;50.930;5.344;2023-10-13T07:04:20;16.33;;;6.57;;
12900;SDS011;6518;50.930;5.344;2023-10-13T07:06:47;15.13;;;5.63;;
12900;SDS011;6518;50.930;5.344;2023-10-13T07:09:15;17.73;;;6.22;;
12900;SDS011;6518;50.930;5.344;2023-10-13T07:12:04;13.27;;;5.95;;
12900;SDS011;6518;50.930;5.344;2023-10-13T07:14:33;15.18;;;6.70;;
12900;SDS011;6518;50.930;5.344;2023-10-13T07:17:01;16.67;;;6.25;;
12900;SDS011;6518;50.930;5.344;2023-10-13T07:19:31;16.10;;;5.75;;
12900;SDS011;6518;50.930;5.344;2023-10-13T07:21:59;14.13;;;6.13;;
12900;SDS011;6518;50.930;5.344;2023-10-13T07:24:44;14.63;;;5.47;;
12900;SDS011;6518;50.930;5.344;2023-10-13T07:27:14;15.63;;;6.53;;
12900;SDS011;6518;50.930;5.344;2023-10-13T07:29:48;11.05;;;5.28;;
12900;SDS011;6518;50.930;5.344;2023-10-13T07:32:21;14.93;;;5.40;;
12900;SDS011;6518;50.930;5.344;2023-10-13T07:34:53;17.02;;;5.93;;
12900;SDS011;6518;50.930;5.344;2023-10-13T07:37:22;12.50;;;5.50;;
12900;SDS011;6518;50.930;5.344;2023-10-13T07:39:54;16.70;;;5.47;;
12900;SDS011;6518;50.930;5.344;2023-10-13T07:42:23;11.70;;;5.18;;
12900;SDS011;6518;50.930;5.344;2023-10-13T07:44:57;11.82;;;5.80;;
12900;SDS011;6518;50.930;5.344;2023-10-13T07:47:24;16.20;;;6.18;;
12900;SDS011;6518;50.930;5.344;2023-10-13T07:49:54;12.15;;;5.20;;
12900;SDS011;6518;50.930;5.344;2023-10-13T07:52:22;13.35;;;5.57;;
12900;SDS011;6518;50.930;5.344;2023-10-13T07:55:01;19.63;;;5.88;;
12900;SDS011;6518;50.930;5.344;2023-10-13T07:57:36;14.40;;;5.53;;
12900;SDS011;6518;50.930;5.344;2023-10-13T08:00:19;11.32;;;5.22;;
12900;SDS011;6518;50.930;5.344;2023-10-13T08:02:55;14.02;;;5.90;;
12900;SDS011;6518;50.930;5.344;2023-10-13T08:05:35;13.15;;;5.57;;
12900;SDS011;6518;50.930;5.344;2023-10-13T08:08:21;13.52;;;5.15;;
12900;SDS011;6518;50.930;5.344;2023-10-13T08:10:51;15.43;;;5.35;;
12900;SDS011;6518;50.930;5.344;2023-10-13T08:13:21;14.20;;;5.70;;
12900;SDS011;6518;50.930;5.344;2023-10-13T08:15:48;12.80;;;5.53;;
12900;SDS011;6518;50.930;5.344;2023-10-13T08:18:17;8.77;;;4.97;;
12900;SDS011;6518;50.930;5.344;2023-10-13T08:20:57;13.45;;;5.45;;
12900;SDS011;6518;50.930;5.344;2023-10-13T08:23:28;11.38;;;5.30;;
12900;SDS011;6518;50.930;5.344;2023-10-13T08:26:21;10.07;;;4.80;;
12900;SDS011;6518;50.930;5.344;2023-10-13T08:29:05;13.32;;;5.68;;
12900;SDS011;6518;50.930;5.344;2023-10-13T08:31:46;14.55;;;5.70;;
12900;SDS011;6518;50.930;5.344;2023-10-13T08:34:29;12.32;;;5.63;;
12900;SDS011;6518;50.930;5.344;2023-10-13T08:37:05;13.00;;;5.43;;
12900;SDS011;6518;50.930;5.344;2023-10-13T08:39:44;10.00;;;5.15;;
12900;SDS011;6518;50.930;5.344;2023-10-13T08:42:44;12.70;;;5.57;;
12900;SDS011;6518;50.930;5.344;2023-10-13T08:45:37;14.98;;;5.93;;
12900;SDS011;6518;50.930;5.344;2023-10-13T08:48:23;10.05;;;5.35;;
12900;SDS011;6518;50.930;5.344;2023-10-13T08:51:00;14.63;;;5.80;;
12900;SDS011;6518;50.930;5.344;2023-10-13T08:53:38;14.07;;;6.25;;
12900;SDS011;6518;50.930;5.344;2023-10-13T08:56:17;13.73;;;5.78;;
12900;SDS011;6518;50.930;5.344;2023-10-13T08:58:58;14.05;;;6.03;;
12900;SDS011;6518;50.930;5.344;2023-10-13T09:01:31;12.20;;;6.28;;
12900;SDS011;6518;50.930;5.344;2023-10-13T09:04:11;12.13;;;6.07;;
12900;SDS011;6518;50.930;5.344;2023-10-13T09:06:48;10.70;;;6.00;;
12900;SDS011;6518;50.930;5.344;2023-10-13T09:09:30;10.35;;;6.32;;
12900;SDS011;6518;50.930;5.344;2023-10-13T09:12:00;9.95;;;6.05;;
12900;SDS011;6518;50.930;5.344;2023-10-13T09:14:34;11.35;;;6.78;;
12900;SDS011;6518;50.930;5.344;2023-10-13T09:17:04;16.05;;;6.78;;
12900;SDS011;6518;50.930;5.344;2023-10-13T09:22:46;12.73;;;6.35;;
12900;SDS011;6518;50.930;5.344;2023-10-13T09:25:23;11.10;;;6.15;;
12900;SDS011;6518;50.930;5.344;2023-10-13T09:27:50;15.68;;;6.03;;
12900;SDS011;6518;50.930;5.344;2023-10-13T09:30:18;13.00;;;6.90;;
12900;SDS011;6518;50.930;5.344;2023-10-13T09:32:48;12.02;;;5.95;;
12900;SDS011;6518;50.930;5.344;2023-10-13T09:35:27;15.10;;;6.60;;
12900;SDS011;6518;50.930;5.344;2023-10-13T09:37:53;11.43;;;6.45;;
12900;SDS011;6518;50.930;5.344;2023-10-13T09:40:23;13.10;;;7.65;;
12900;SDS011;6518;50.930;5.344;2023-10-13T09:42:58;8.85;;;6.50;;
12900;SDS011;6518;50.930;5.344;2023-10-13T09:45:30;15.80;;;6.90;;
12900;SDS011;6518;50.930;5.344;2023-10-13T09:48:01;11.13;;;6.30;;
12900;SDS011;6518;50.930;5.344;2023-10-13T09:50:32;18.10;;;6.75;;
12900;SDS011;6518;50.930;5.344;2023-10-13T09:53:02;14.40;;;6.40;;
12900;SDS011;6518;50.930;5.344;2023-10-13T09:55:36;13.35;;;6.55;;
12900;SDS011;6518;50.930;5.344;2023-10-13T09:58:10;8.55;;;6.30;;
12900;SDS011;6518;50.930;5.344;2023-10-13T10:00:40;16.30;;;6.90;;
12900;SDS011;6518;50.930;5.344;2023-10-13T10:03:12;9.82;;;6.13;;
12900;SDS011;6518;50.930;5.344;2023-10-13T10:05:56;14.27;;;6.40;;
12900;SDS011;6518;50.930;5.344;2023-10-13T10:08:29;13.35;;;6.80;;
12900;SDS011;6518;50.930;5.344;2023-10-13T10:14:09;12.77;;;6.93;;
12900;SDS011;6518;50.930;5.344;2023-10-13T10:16:45;12.93;;;6.22;;
12900;SDS011;6518;50.930;5.344;2023-10-13T10:19:24;10.82;;;6.15;;
12900;SDS011;6518;50.930;5.344;2023-10-13T10:22:00;12.10;;;6.35;;
12900;SDS011;6518;50.930;5.344;2023-10-13T10:24:31;13.25;;;6.28;;
12900;SDS011;6518;50.930;5.344;2023-10-13T10:27:01;13.45;;;6.88;;
12900;SDS011;6518;50.930;5.344;2023-10-13T10:29:31;11.73;;;6.10;;
12900;SDS011;6518;50.930;5.344;2023-10-13T10:31:59;11.50;;;6.55;;
12900;SDS011;6518;50.930;5.344;2023-10-13T10:34:32;10.93;;;6.45;;
12900;SDS011;6518;50.930;5.344;2023-10-13T10:37:00;11.48;;;6.30;;
12900;SDS011;6518;50.930;5.344;2023-10-13T10:39:34;14.15;;;6.57;;
12900;SDS011;6518;50.930;5.344;2023-10-13T10:42:10;18.92;;;6.15;;
12900;SDS011;6518;50.930;5.344;2023-10-13T10:44:43;16.63;;;5.80;;
12900;SDS011;6518;50.930;5.344;2023-10-13T10:47:13;14.30;;;6.03;;
12900;SDS011;6518;50.930;5.344;2023-10-13T10:49:44;13.43;;;6.40;;
12900;SDS011;6518;50.930;5.344;2023-10-13T10:52:15;18.23;;;6.63;;
12900;SDS011;6518;50.930;5.344;2023-10-13T10:54:44;15.35;;;5.93;;
12900;SDS011;6518;50.930;5.344;2023-10-13T10:57:17;11.60;;;6.20;;
12900;SDS011;6518;50.930;5.344;2023-10-13T10:59:45;12.70;;;5.97;;
12900;SDS011;6518;50.930;5.344;2023-10-13T11:02:29;12.82;;;5.60;;
12900;SDS011;6518;50.930;5.344;2023-10-13T11:04:56;14.40;;;5.93;;
12900;SDS011;6518;50.930;5.344;2023-10-13T11:07:24;13.60;;;5.97;;
12900;SDS011;6518;50.930;5.344;2023-10-13T11:09:52;14.80;;;5.63;;
12900;SDS011;6518;50.930;5.344;2023-10-13T11:12:31;13.88;;;5.80;;
12900;SDS011;6518;50.930;5.344;2023-10-13T11:15:01;14.57;;;6.28;;
12900;SDS011;6518;50.930;5.344;2023-10-13T11:17:37;15.45;;;6.18;;
12900;SDS011;6518;50.930;5.344;2023-10-13T11:20:08;14.48;;;5.57;;
12900;SDS011;6518;50.930;5.344;2023-10-13T11:22:45;17.15;;;6.18;;
12900;SDS011;6518;50.930;5.344;2023-10-13T11:25:19;17.35;;;6.20;;
12900;SDS011;6518;50.930;5.344;2023-10-13T11:27:54;14.55;;;6.13;;
12900;SDS011;6518;50.930;5.344;2023-10-13T11:30:27;15.75;;;5.53;;
12900;SDS011;6518;50.930;5.344;2023-10-13T11:33:07;19.10;;;5.90;;
12900;SDS011;6518;50.930;5.344;2023-10-13T11:35:35;19.05;;;6.15;;
12900;SDS011;6518;50.930;5.344;2023-10-13T11:38:21;18.88;;;5.47;;
12900;SDS011;6518;50.930;5.344;2023-10-13T11:40:52;13.13;;;5.57;;
12900;SDS011;6518;50.930;5.344;2023-10-13T11:43:33;16.05;;;5.18;;
12900;SDS011;6518;50.930;5.344;2023-10-13T11:46:19;15.00;;;6.05;;
12900;SDS011;6518;50.930;5.344;2023-10-13T11:49:01;16.77;;;5.93;;
12900;SDS011;6518;50.930;5.344;2023-10-13T11:51:42;11.63;;;5.90;;
12900;SDS011;6518;50.930;5.344;2023-10-13T11:54:10;13.70;;;5.60;;
12900;SDS011;6518;50.930;5.344;2023-10-13T11:56:37;17.27;;;5.90;;
12900;SDS011;6518;50.930;5.344;2023-10-13T11:59:04;14.73;;;5.45;;
12900;SDS011;6518;50.930;5.344;2023-10-13T12:01:32;22.33;;;5.70;;
12900;SDS011;6518;50.930;5.344;2023-10-13T12:04:13;10.15;;;5.30;;
12900;SDS011;6518;50.930;5.344;2023-10-13T12:06:58;22.95;;;6.90;;
12900;SDS011;6518;50.930;5.344;2023-10-13T12:09:39;17.85;;;5.75;;
12900;SDS011;6518;50.930;5.344;2023-10-13T12:12:18;16.13;;;6.25;;
12900;SDS011;6518;50.930;5.344;2023-10-13T12:14:45;12.38;;;5.43;;
12900;SDS011;6518;50.930;5.344;2023-10-13T12:17:22;14.23;;;5.40;;
12900;SDS011;6518;50.930;5.344;2023-10-13T12:19:53;19.23;;;6.00;;
12900;SDS011;6518;50.930;5.344;2023-10-13T12:22:20;14.45;;;5.50;;
12900;SDS011;6518;50.930;5.344;2023-10-13T12:24:53;13.13;;;5.20;;
12900;SDS011;6518;50.930;5.344;2023-10-13T12:27:20;13.35;;;5.63;;
12900;SDS011;6518;50.930;5.344;2023-10-13T12:29:52;12.00;;;5.60;;
12900;SDS011;6518;50.930;5.344;2023-10-13T12:32:23;13.18;;;5.68;;
12900;SDS011;6518;50.930;5.344;2023-10-13T12:34:50;12.73;;;5.30;;
12900;SDS011;6518;50.930;5.344;2023-10-13T12:37:26;12.77;;;5.30;;
12900;SDS011;6518;50.930;5.344;2023-10-13T12:40:16;12.50;;;5.47;;
12900;SDS011;6518;50.930;5.344;2023-10-13T12:43:01;17.38;;;6.00;;
12900;SDS011;6518;50.930;5.344;2023-10-13T12:45:47;19.50;;;5.85;;
12900;SDS011;6518;50.930;5.344;2023-10-13T12:48:34;13.48;;;5.20;;
12900;SDS011;6518;50.930;5.344;2023-10-13T12:51:22;15.23;;;5.82;;
12900;SDS011;6518;50.930;5.344;2023-10-13T12:54:03;13.95;;;5.15;;
12900;SDS011;6518;50.930;5.344;2023-10-13T12:56:31;17.83;;;5.82;;
12900;SDS011;6518;50.930;5.344;2023-10-13T12:58:58;18.15;;;6.82;;
12900;SDS011;6518;50.930;5.344;2023-10-13T13:01:25;13.55;;;5.97;;
12900;SDS011;6518;50.930;5.344;2023-10-13T13:03:59;18.88;;;6.13;;
12900;SDS011;6518;50.930;5.344;2023-10-13T13:06:28;18.60;;;6.03;;
12900;SDS011;6518;50.930;5.344;2023-10-13T13:08:57;14.30;;;5.70;;
12900;SDS011;6518;50.930;5.344;2023-10-13T13:11:25;12.27;;;5.47;;
12900;SDS011;6518;50.930;5.344;2023-10-13T13:13:53;20.48;;;5.75;;
12900;SDS011;6518;50.930;5.344;2023-10-13T13:16:20;9.85;;;5.20;;
12900;SDS011;6518;50.930;5.344;2023-10-13T13:18:50;14.23;;;5.40;;
12900;SDS011;6518;50.930;5.344;2023-10-13T13:21:21;13.00;;;5.00;;
12900;SDS011;6518;50.930;5.344;2023-10-13T13:23:49;10.45;;;5.22;;
12900;SDS011;6518;50.930;5.344;2023-10-13T13:26:16;15.05;;;5.47;;
12900;SDS011;6518;50.930;5.344;2023-10-13T13:28:43;9.57;;;5.07;;
12900;SDS011;6518;50.930;5.344;2023-10-13T13:31:15;15.63;;;4.85;;
12900;SDS011;6518;50.930;5.344;2023-10-13T13:33:42;10.02;;;5.70;;
12900;SDS011;6518;50.930;5.344;2023-10-13T13:36:09;11.48;;;5.55;;
12900;SDS011;6518;50.930;5.344;2023-10-13T13:38:40;14.35;;;5.55;;
12900;SDS011;6518;50.930;5.344;2023-10-13T13:41:11;15.43;;;5.95;;
12900;SDS011;6518;50.930;5.344;2023-10-13T13:43:41;11.10;;;5.38;;
12900;SDS011;6518;50.930;5.344;2023-10-13T13:46:20;12.60;;;5.60;;
12900;SDS011;6518;50.930;5.344;2023-10-13T13:48:50;11.95;;;5.20;;
12900;SDS011;6518;50.930;5.344;2023-10-13T13:51:23;12.70;;;5.32;;
12900;SDS011;6518;50.930;5.344;2023-10-13T13:53:54;11.80;;;5.82;;
12900;SDS011;6518;50.930;5.344;2023-10-13T13:56:22;10.98;;;5.07;;
12900;SDS011;6518;50.930;5.344;2023-10-13T13:58:51;11.00;;;5.43;;
12900;SDS011;6518;50.930;5.344;2023-10-13T14:01:19;8.15;;;5.10;;
12900;SDS011;6518;50.930;5.344;2023-10-13T14:03:47;11.13;;;5.10;;
12900;SDS011;6518;50.930;5.344;2023-10-13T14:06:16;15.20;;;6.03;;
12900;SDS011;6518;50.930;5.344;2023-10-13T14:08:46;9.20;;;5.15;;
12900;SDS011;6518;50.930;5.344;2023-10-13T14:11:17;12.88;;;5.72;;
12900;SDS011;6518;50.930;5.344;2023-10-13T14:14:08;9.48;;;5.38;;
12900;SDS011;6518;50.930;5.344;2023-10-13T14:16:37;16.40;;;5.18;;
12900;SDS011;6518;50.930;5.344;2023-10-13T14:19:09;10.75;;;5.47;;
12900;SDS011;6518;50.930;5.344;2023-10-13T14:21:37;9.70;;;5.28;;
12900;SDS011;6518;50.930;5.344;2023-10-13T14:24:04;13.75;;;5.30;;
12900;SDS011;6518;50.930;5.344;2023-10-13T14:26:40;10.10;;;5.28;;
12900;SDS011;6518;50.930;5.344;2023-10-13T14:29:09;9.43;;;5.50;;
12900;SDS011;6518;50.930;5.344;2023-10-13T14:31:39;8.88;;;5.28;;
12900;SDS011;6518;50.930;5.344;2023-10-13T14:34:06;10.10;;;5.10;;
12900;SDS011;6518;50.930;5.344;2023-10-13T14:36:33;9.02;;;5.45;;
12900;SDS011;6518;50.930;5.344;2023-10-13T14:39:01;7.13;;;5.10;;
12900;SDS011;6518;50.930;5.344;2023-10-13T14:41:28;14.07;;;5.65;;
12900;SDS011;6518;50.930;5.344;2023-10-13T14:43:57;11.93;;;5.43;;
12900;SDS011;6518;50.930;5.344;2023-10-13T14:46:30;10.02;;;5.60;;
12900;SDS011;6518;50.930;5.344;2023-10-13T14:49:00;10.52;;;5.22;;
12900;SDS011;6518;50.930;5.344;2023-10-13T14:51:28;11.02;;;4.93;;
12900;SDS011;6518;50.930;5.344;2023-10-13T14:53:56;14.13;;;5.45;;
12900;SDS011;6518;50.930;5.344;2023-10-13T14:56:25;10.10;;;5.15;;
12900;SDS011;6518;50.930;5.344;2023-10-13T14:58:53;11.52;;;5.25;;
12900;SDS011;6518;50.930;5.344;2023-10-13T15:01:22;14.45;;;6.15;;
12900;SDS011;6518;50.930;5.344;2023-10-13T15:03:52;10.10;;;5.45;;
12900;SDS011;6518;50.930;5.344;2023-10-13T15:06:21;10.10;;;5.53;;
12900;SDS011;6518;50.930;5.344;2023-10-13T15:08:51;11.45;;;5.07;;
12900;SDS011;6518;50.930;5.344;2023-10-13T15:11:19;12.82;;;5.20;;
12900;SDS011;6518;50.930;5.344;2023-10-13T15:13:46;17.42;;;5.50;;
12900;SDS011;6518;50.930;5.344;2023-10-13T15:16:17;9.75;;;5.20;;
12900;SDS011;6518;50.930;5.344;2023-10-13T15:18:46;9.60;;;5.13;;
12900;SDS011;6518;50.930;5.344;2023-10-13T15:21:18;9.82;;;5.45;;
12900;SDS011;6518;50.930;5.344;2023-10-13T15:23:46;7.90;;;5.10;;
12900;SDS011;6518;50.930;5.344;2023-10-13T15:26:13;12.30;;;5.70;;
12900;SDS011;6518;50.930;5.344;2023-10-13T15:28:40;10.43;;;5.57;;
12900;SDS011;6518;50.930;5.344;2023-10-13T15:31:14;10.30;;;5.60;;
12900;SDS011;6518;50.930;5.344;2023-10-13T15:34:03;7.88;;;4.82;;